-4.51C
небольшая облачность
небольшая облачность
Дата и времяТемператураДавление, мм рт.ст.Влажность, %Осадки
МинимумМаксимум
14.04.2024 08:00-4.39C-4.16C75475переменная облачность
14.04.2024 11:00-2.86C-2.03C75663переменная облачность
14.04.2024 14:00-0.39C-0.39C75751переменная облачность
14.04.2024 17:00-0.03C-0.03C75951облачно с прояснениями
14.04.2024 20:00-2.97C-2.97C75972облачно с прояснениями
14.04.2024 23:00-4C-4C76179переменная облачность
15.04.2024 02:00-3.29C-3.29C76175пасмурно
15.04.2024 05:00-3.82C-3.82C76279пасмурно
15.04.2024 08:00-1.03C-1.03C76265переменная облачность
15.04.2024 11:002.67C2.67C76253переменная облачность
15.04.2024 14:005.6C5.6C76246переменная облачность
15.04.2024 17:006.6C6.6C76150переменная облачность
15.04.2024 20:001.84C1.84C76074небольшая облачность
15.04.2024 23:000C0C76080небольшая облачность
16.04.2024 02:00-0.53C-0.53C75981переменная облачность
16.04.2024 05:00-0.61C-0.61C75985переменная облачность
16.04.2024 08:003.11C3.11C75773ясно
16.04.2024 11:008.14C8.14C75665ясно
16.04.2024 14:009.92C9.92C75361переменная облачность
16.04.2024 17:004.67C4.67C75396небольшой дождь
16.04.2024 20:004.84C4.84C75294небольшой дождь
16.04.2024 23:004.49C4.49C75098небольшой дождь
17.04.2024 02:004.37C4.37C75095пасмурно
17.04.2024 05:003.37C3.37C75096пасмурно
17.04.2024 08:004.93C4.93C75083переменная облачность
17.04.2024 11:007.93C7.93C75164облачно с прояснениями
17.04.2024 14:008.88C8.88C75261небольшой дождь
17.04.2024 17:009.41C9.41C75260пасмурно
17.04.2024 20:006.26C6.26C75081пасмурно
17.04.2024 23:006.02C6.02C74692небольшой дождь
18.04.2024 02:007.96C7.96C74491небольшой дождь
18.04.2024 05:006.83C6.83C74682облачно с прояснениями
18.04.2024 08:005.82C5.82C74780пасмурно
18.04.2024 11:005.57C5.57C75177пасмурно
18.04.2024 14:005.34C5.34C75476пасмурно
18.04.2024 17:005.39C5.39C75777пасмурно
18.04.2024 20:004.22C4.22C75983небольшой дождь
18.04.2024 23:003.42C3.42C76281пасмурно
19.04.2024 02:002.38C2.38C76384пасмурно
19.04.2024 05:000.29C0.29C76589облачно с прояснениями
Дата и время наблюдения: 14.04.2024 05:57:06